Platzwetter Flugplatz Wels

Flugwetter Linz LOWL

[Quelle: ADDS]
METAR
LOWL 222350Z AUTO 25005KT 9999 NCD 08/06 Q1026 =
LOWL 222315Z 2300/2324 27003KT 9999 FEW050 TX20/2315Z TN07/2305Z TEMPO 2302/2310 1200 BCFG SCT002 PROB30 TEMPO 2304/2308 0100 FG VV001 BECMG 2315/2317 27010KT
TAF
LOWL 222315Z 2300/2324 27003KT 9999 FEW050 TX20/2315Z TN07/2305Z TEMPO 2302/2310 1200 BCFG SCT002 PROB30 TEMPO 2304/2308 0100 FG VV001 BECMG 2315/2317 27010KT =

Flugwetter Salzburg LOWS

[Quelle: ADDS]
METAR
LOWS 222350Z AUTO 15004KT 9999 NCD 07/07 Q1027 =
LOWS 222315Z 2300/2324 15005KT CAVOK TX21/2314Z TN08/2303Z PROB30 TEMPO 2302/2307 VRB02KT 1200 BCFG FEW003 BECMG 2309/2311 34005KT BECMG 2316/2318 15005KT
TAF
LOWS 222315Z 2300/2324 15005KT CAVOK TX21/2314Z TN08/2303Z PROB30 TEMPO 2302/2307 VRB02KT 1200 BCFG FEW003 BECMG 2309/2311 34005KT BECMG 2316/2318 15005KT =

Wind - Verlauf

Windrichtung - Verlauf

Temperatur - Verlauf

Relative Luftfeuchtigkeit - Verlauf

Luftdruck - Verlauf

Wir benutzen Cookies

Wir nutzen Cookies auf unserer Website. Einige von ihnen sind essenziell für den Betrieb der Seite, während andere uns helfen, diese Website und die Nutzererfahrung zu verbessern (Tracking Cookies). Sie können selbst entscheiden, ob Sie die Cookies zulassen möchten. Bitte beachten Sie, dass bei einer Ablehnung womöglich nicht mehr alle Funktionalitäten der Seite zur Verfügung stehen.